Philadelphia, Pennsylvania
Current Conditions -  °F | °C
As of 3:54 PM on Friday 24 Oct 2014 (Local Time) from KPHL Reporting Station
Broken Clouds Broken Clouds  
Wind Chill: 69°   Ceiling: 25000
Heat Index: 69°   Visibility: 10mi
Dew Point: 44°   Wind: 13mph
Humidity: 40%   Direction: 310°NW
Pressure: 29.81"   Gusts: NA
Location:  39.95°N, 75.16°W
Report Text: KPHL 241954Z 31011KT 10SM BKN250 21/07 A2981 RMK AO2 SLP093 T02060067
Loading
Personal Weather Stations






























Interactive Weather Map
Tropical Storm Tracking
New forecast layout! Learn more

10-Day Weather Forecast

Advertisements
Track Severe Weather on mobile